Time;durP1;ratioP1;P1;durP2;ratioP2;P2;SDS_P1;SDS_P2;PMS_P1;PMS_P2;Temp;Humidity;BMP_temperature;BMP_pressure;BME280_temperature;BME280_humidity;BME280_pressure;Samples;Min_cycle;Max_cycle;Signal;HPM_P1;HPM_P2
2022/01/01 00:00:08;;;;;;;0.30;0.20;;;;;;;12.83;100.00;101212.16;5043230;28;20426;-51
2022/01/01 00:02:36;;;;;;;0.30;0.20;;;;;;;12.92;100.00;101209.28;5036559;28;20450;-51
2022/01/01 00:05:05;;;;;;;0.30;0.20;;;;;;;12.87;100.00;101196.03;5022927;28;20488;-51
2022/01/01 00:07:33;;;;;;;1.17;1.17;;;;;;;12.68;100.00;101198.25;5046010;28;20452;-51
2022/01/01 00:10:00;;;;;;;0.53;0.53;;;;;;;12.79;100.00;101187.34;5040794;28;20940;-51
2022/01/01 00:12:28;;;;;;;0.57;0.57;;;;;;;12.70;100.00;101191.09;5042319;28;20442;-51
2022/01/01 00:14:54;;;;;;;0.37;0.30;;;;;;;12.77;100.00;101189.19;5041771;28;20821;-52
2022/01/01 00:17:21;;;;;;;0.30;0.20;;;;;;;12.87;100.00;101189.81;5041565;28;20496;-52
2022/01/01 00:19:47;;;;;;;0.30;0.20;;;;;;;12.82;100.00;101189.94;5040878;28;20826;-52
2022/01/01 00:22:14;;;;;;;0.30;0.30;;;;;;;12.79;100.00;101183.81;5040637;28;20439;-52
2022/01/01 00:24:41;;;;;;;0.30;0.20;;;;;;;12.82;100.00;101184.59;5041486;28;20863;-52
2022/01/01 00:27:07;;;;;;;0.30;0.20;;;;;;;12.95;100.00;101182.53;5040448;28;20940;-52
2022/01/01 00:29:34;;;;;;;0.30;0.20;;;;;;;12.95;100.00;101182.53;5044811;28;20867;-52
2022/01/01 00:32:01;;;;;;;0.30;0.20;;;;;;;12.94;100.00;101189.66;5040513;28;20446;-52
2022/01/01 00:34:34;;;;;;;0.30;0.20;;;;;;;12.92;100.00;101188.81;5041284;28;20537;-52
2022/01/01 00:37:02;;;;;;;0.30;0.23;;;;;;;12.90;100.00;101189.78;5041412;28;20462;-52
2022/01/01 00:39:29;;;;;;;0.57;0.57;;;;;;;12.83;100.00;101182.81;5043037;28;20439;-52
2022/01/01 00:41:55;;;;;;;0.30;0.20;;;;;;;12.91;100.00;101186.19;5036626;28;20971;-52
2022/01/01 00:44:22;;;;;;;0.30;0.20;;;;;;;12.84;100.00;101190.78;5035368;28;20992;-52
2022/01/01 00:46:49;;;;;;;0.30;0.20;;;;;;;12.93;100.00;101190.56;5038658;28;20590;-52
2022/01/01 00:49:16;;;;;;;0.30;0.20;;;;;;;13.12;100.00;101179.44;5039229;28;20442;-52
2022/01/01 00:51:43;;;;;;;0.30;0.20;;;;;;;13.05;100.00;101176.94;5042218;28;20443;-52
2022/01/01 00:54:09;;;;;;;0.30;0.20;;;;;;;12.95;100.00;101178.06;5039653;28;20468;-53
2022/01/01 00:56:36;;;;;;;1.13;1.13;;;;;;;12.95;100.00;101177.19;5043265;28;20441;-52
2022/01/01 00:59:02;;;;;;;0.30;0.20;;;;;;;12.88;100.00;101186.25;5043770;28;20471;-52
2022/01/01 01:01:29;;;;;;;0.30;0.20;;;;;;;13.16;100.00;101187.34;5038319;28;20967;-52
2022/01/01 01:03:56;;;;;;;0.50;0.50;;;;;;;12.95;100.00;101185.19;5038394;28;20530;-52
2022/01/01 01:06:22;;;;;;;0.50;0.50;;;;;;;12.89;100.00;101178.22;5041586;28;21024;-52
2022/01/01 01:08:51;;;;;;;0.30;0.30;;;;;;;13.02;100.00;101179.69;5039388;28;20445;-52
2022/01/01 01:11:18;;;;;;;0.30;0.20;;;;;;;12.99;100.00;101177.06;5036930;28;20951;-52
2022/01/01 01:13:50;;;;;;;0.30;0.20;;;;;;;13.00;100.00;101180.63;5043664;28;21769;-52
2022/01/01 01:16:17;;;;;;;0.30;0.20;;;;;;;13.01;100.00;101183.25;5039628;28;21023;-52
2022/01/01 01:18:44;;;;;;;0.50;0.50;;;;;;;13.02;100.00;101185.03;5044188;28;20483;-52
2022/01/01 01:21:10;;;;;;;0.30;0.20;;;;;;;13.08;100.00;101189.31;5045214;28;21821;-52
2022/01/01 01:23:37;;;;;;;0.30;0.20;;;;;;;12.91;100.00;101192.41;5039583;28;20462;-52
2022/01/01 01:26:03;;;;;;;0.30;0.20;;;;;;;12.94;100.00;101188.78;5046343;28;20479;-52
2022/01/01 01:28:30;;;;;;;0.30;0.20;;;;;;;12.91;100.00;101178.19;5047872;28;20526;-52
2022/01/01 01:30:57;;;;;;;0.33;0.27;;;;;;;12.98;100.00;101179.78;5042933;28;20504;-51
2022/01/01 01:33:24;;;;;;;0.30;0.20;;;;;;;12.95;100.00;101191.41;5044446;28;20537;-52
2022/01/01 01:35:50;;;;;;;0.30;0.20;;;;;;;13.00;100.00;101191.28;5044034;28;20496;-53
2022/01/01 01:38:17;;;;;;;0.30;0.20;;;;;;;13.11;100.00;101193.69;5041571;28;20498;-52
2022/01/01 01:40:44;;;;;;;0.30;0.20;;;;;;;13.11;100.00;101199.91;5044707;28;20426;-52
2022/01/01 01:43:12;;;;;;;0.30;0.20;;;;;;;13.10;100.00;101203.50;5037971;28;20528;-52
2022/01/01 01:45:39;;;;;;;0.40;0.37;;;;;;;13.09;100.00;101199.09;5041858;28;20486;-52
2022/01/01 01:48:06;;;;;;;0.30;0.20;;;;;;;13.03;100.00;101212.59;5043311;28;20418;-52
2022/01/01 01:50:35;;;;;;;0.40;0.30;;;;;;;13.05;100.00;101214.31;5043720;28;20435;-52
2022/01/01 01:53:01;;;;;;;0.30;0.20;;;;;;;13.12;100.00;101201.66;5042394;28;21006;-52
2022/01/01 01:55:28;;;;;;;0.30;0.20;;;;;;;13.01;100.00;101209.94;5043566;28;20434;-52
2022/01/01 01:57:56;;;;;;;0.30;0.20;;;;;;;13.08;100.00;101213.34;5045799;28;20498;-52
2022/01/01 02:03:10;;;;;;;0.30;0.20;;;;;;;13.06;100.00;101201.84;5043517;28;20452;-52
2022/01/01 02:05:38;;;;;;;0.67;0.47;;;;;;;13.17;100.00;101197.13;5040287;28;20863;-52
2022/01/01 02:08:06;;;;;;;0.30;0.20;;;;;;;13.08;100.00;101194.66;5044387;28;20443;-52
2022/01/01 02:10:34;;;;;;;0.30;0.20;;;;;;;13.02;100.00;101192.16;5040944;28;20452;-52
2022/01/01 02:13:20;;;;;;;0.30;0.20;;;;;;;13.01;100.00;101195.72;5025810;28;20427;-52
2022/01/01 02:18:14;;;;;;;0.30;0.20;;;;;;;12.99;100.00;101194.88;5044517;28;20479;-52
2022/01/01 02:20:41;;;;;;;6.83;2.40;;;;;;;13.10;100.00;101192.81;5040505;28;21017;-52
2022/01/01 02:23:11;;;;;;;0.40;0.30;;;;;;;13.00;100.00;101191.28;5041088;28;20471;-53
2022/01/01 02:25:38;;;;;;;0.30;0.20;;;;;;;12.94;100.00;101191.44;5041489;28;20516;-52
2022/01/01 02:28:06;;;;;;;0.30;0.20;;;;;;;12.90;100.00;101190.66;5043582;28;20455;-52
2022/01/01 02:30:33;;;;;;;0.30;0.20;;;;;;;12.87;100.00;101190.69;5043284;28;20595;-52
2022/01/01 02:32:59;;;;;;;0.30;0.20;;;;;;;12.78;100.00;101192.72;5040589;28;20977;-52
2022/01/01 02:35:26;;;;;;;0.40;0.37;;;;;;;12.87;100.00;101189.81;5042366;28;20462;-53
2022/01/01 02:37:53;;;;;;;0.30;0.20;;;;;;;12.92;100.00;101185.28;5043563;28;20410;-52
2022/01/01 02:40:19;;;;;;;0.30;0.20;;;;;;;13.04;100.00;101185.88;5043412;28;20443;-52
2022/01/01 02:42:46;;;;;;;1.10;1.00;;;;;;;13.01;100.00;101172.56;5043027;28;20458;-52
2022/01/01 02:45:14;;;;;;;0.30;0.20;;;;;;;12.90;100.00;101184.44;5041107;28;20513;-51
2022/01/01 02:47:41;;;;;;;0.30;0.20;;;;;;;12.83;100.00;101181.03;5041601;28;20509;-52
2022/01/01 02:50:09;;;;;;;0.30;0.20;;;;;;;12.77;100.00;101175.84;5041964;28;20444;-52
2022/01/01 02:52:36;;;;;;;0.67;0.67;;;;;;;12.79;100.00;101189.16;5042615;28;20422;-52
2022/01/01 02:55:04;;;;;;;0.30;0.27;;;;;;;12.91;100.00;101179.06;5041443;28;20987;-51
2022/01/01 02:57:30;;;;;;;0.30;0.20;;;;;;;12.97;100.00;101181.56;5046528;28;20424;-51
2022/01/01 02:59:57;;;;;;;0.30;0.20;;;;;;;13.00;100.00;101175.28;5041344;28;20482;-52
2022/01/01 03:02:24;;;;;;;0.30;0.20;;;;;;;12.88;100.00;101171.09;5041726;28;20940;-51
2022/01/01 03:04:51;;;;;;;0.30;0.20;;;;;;;12.88;100.00;101183.56;5043210;28;20440;-52
2022/01/01 03:07:18;;;;;;;0.30;0.20;;;;;;;12.78;100.00;101190.94;5037502;28;21033;-51
2022/01/01 03:09:45;;;;;;;0.50;0.50;;;;;;;12.81;100.00;101189.97;5042700;28;20499;-52
2022/01/01 03:12:13;;;;;;;0.40;0.33;;;;;;;12.90;100.00;101193.31;5040687;28;20530;-53
2022/01/01 03:14:40;;;;;;;0.30;0.20;;;;;;;12.88;100.00;101184.44;5043716;28;20430;-52
2022/01/01 03:17:08;;;;;;;0.30;0.20;;;;;;;12.82;100.00;101192.63;5042200;28;20940;-52
2022/01/01 03:19:35;;;;;;;0.30;0.30;;;;;;;12.82;100.00;101181.06;5044138;28;20448;-52
2022/01/01 03:22:03;;;;;;;0.40;0.40;;;;;;;12.72;100.00;101189.28;5045194;28;20508;-52
2022/01/01 03:24:30;;;;;;;0.30;0.20;;;;;;;12.69;100.00;101184.00;5042914;28;20443;-52
2022/01/01 03:26:57;;;;;;;0.30;0.20;;;;;;;12.73;100.00;101198.16;5039958;28;20516;-51
2022/01/01 03:29:28;;;;;;;1.60;0.80;;;;;;;12.69;100.00;101191.13;5043445;28;20443;-52
2022/01/01 03:31:54;;;;;;;0.40;0.30;;;;;;;12.72;100.00;101207.06;5043155;28;20724;-52
2022/01/01 03:34:21;;;;;;;0.33;0.27;;;;;;;12.74;100.00;101211.44;5044421;28;20418;-52
2022/01/01 03:36:48;;;;;;;0.30;0.30;;;;;;;12.73;100.00;101216.81;5043435;28;20520;-51
2022/01/01 03:39:14;;;;;;;0.30;0.20;;;;;;;12.67;100.00;101222.31;5042851;28;20498;-52
2022/01/01 03:41:41;;;;;;;21.13;1.73;;;;;;;12.75;100.00;101210.56;5040678;28;20455;-52
2022/01/01 03:44:08;;;;;;;0.30;0.20;;;;;;;12.63;100.00;101220.63;5041366;28;20447;-51
2022/01/01 03:46:34;;;;;;;0.60;0.60;;;;;;;12.58;100.00;101226.03;5041653;28;20536;-52
2022/01/01 03:49:01;;;;;;;0.50;0.50;;;;;;;12.49;100.00;101233.38;5039872;28;20513;-52
2022/01/01 03:51:28;;;;;;;0.30;0.20;;;;;;;12.53;100.00;101237.75;5046134;28;20451;-54
2022/01/01 03:53:54;;;;;;;0.30;0.30;;;;;;;12.55;100.00;101234.13;5036588;28;20780;-51
2022/01/01 03:56:21;;;;;;;0.30;0.20;;;;;;;12.50;100.00;101233.34;5039221;28;20463;-51
2022/01/01 03:58:47;;;;;;;0.30;0.20;;;;;;;12.49;100.00;101226.25;5039630;28;21018;-51
2022/01/01 04:01:14;;;;;;;1.03;1.03;;;;;;;12.53;100.00;101230.63;5031428;28;20455;-52
2022/01/01 04:03:42;;;;;;;0.30;0.20;;;;;;;12.40;100.00;101231.78;5038971;28;20943;-52
2022/01/01 04:06:09;;;;;;;1.23;1.13;;;;;;;12.29;100.00;101233.78;5047109;28;20540;-51
2022/01/01 04:08:36;;;;;;;0.40;0.40;;;;;;;12.29;100.00;101234.66;5038897;28;20452;-51
2022/01/01 04:11:02;;;;;;;1.10;1.00;;;;;;;12.39;100.00;101232.69;5045359;28;20506;-51
2022/01/01 04:13:29;;;;;;;0.30;0.20;;;;;;;12.34;100.00;101237.25;5045986;28;20451;-51
2022/01/01 04:15:56;;;;;;;1.23;1.17;;;;;;;12.36;100.00;101230.97;5039640;28;20467;-52
2022/01/01 04:18:30;;;;;;;0.30;0.20;;;;;;;12.29;100.00;101232.00;5039073;28;20452;-51
2022/01/01 04:20:56;;;;;;;0.30;0.20;;;;;;;12.29;100.00;101228.44;5043443;28;20944;-52
2022/01/01 04:23:23;;;;;;;0.50;0.50;;;;;;;12.31;100.00;101229.28;5045527;28;20455;-51
2022/01/01 04:25:50;;;;;;;1.00;1.00;;;;;;;12.41;100.00;101234.41;5040806;28;20830;-51
2022/01/01 04:28:17;;;;;;;1.60;1.60;;;;;;;12.34;100.00;101223.94;5038903;28;20521;-51
2022/01/01 04:30:43;;;;;;;0.30;0.20;;;;;;;12.36;100.00;101228.31;5043332;28;20513;-52
2022/01/01 04:33:10;;;;;;;0.30;0.20;;;;;;;12.34;100.00;101226.59;5045217;28;20461;-51
2022/01/01 04:35:37;;;;;;;0.30;0.20;;;;;;;12.32;100.00;101228.38;5040930;28;20441;-51
2022/01/01 04:38:05;;;;;;;0.30;0.20;;;;;;;12.23;100.00;101232.13;5038796;28;20519;-52
2022/01/01 04:40:31;;;;;;;0.30;0.20;;;;;;;12.29;100.00;101231.13;5050187;28;20572;-51
2022/01/01 04:42:58;;;;;;;0.40;0.30;;;;;;;12.26;100.00;101229.41;5038765;28;20841;-51
2022/01/01 04:45:25;;;;;;;0.30;0.20;;;;;;;12.28;100.00;101234.69;5042661;28;20988;-51
2022/01/01 04:47:51;;;;;;;0.67;0.50;;;;;;;12.20;100.00;101226.88;5034670;28;21004;-51
2022/01/01 04:50:18;;;;;;;0.53;0.53;;;;;;;11.99;100.00;101225.50;5042312;28;20456;-52
2022/01/01 04:52:45;;;;;;;0.30;0.20;;;;;;;12.09;100.00;101229.75;5048057;28;20478;-51
2022/01/01 04:55:12;;;;;;;0.30;0.20;;;;;;;11.85;100.00;101232.88;5035578;28;20963;-51
2022/01/01 04:57:38;;;;;;;0.33;0.30;;;;;;;11.95;100.00;101231.78;5052170;28;20455;-50
2022/01/01 05:00:06;;;;;;;7.50;1.80;;;;;;;11.95;100.00;101233.59;5045140;28;20455;-51
2022/01/01 05:02:33;;;;;;;0.30;0.20;;;;;;;12.01;100.00;101234.34;5042669;28;20508;-52
2022/01/01 05:05:00;;;;;;;0.47;0.47;;;;;;;11.85;100.00;101241.75;5044542;28;20604;-51
2022/01/01 05:07:26;;;;;;;1.63;1.50;;;;;;;11.73;100.00;101230.41;5049021;28;20487;-51
2022/01/01 05:09:53;;;;;;;0.30;0.20;;;;;;;11.83;100.00;101234.69;5047018;28;20455;-51
2022/01/01 05:12:20;;;;;;;0.30;0.20;;;;;;;11.68;100.00;101237.59;5037933;28;20478;-51
2022/01/01 05:14:46;;;;;;;0.30;0.20;;;;;;;11.79;100.00;101238.31;5046874;28;20457;-51
2022/01/01 05:17:14;;;;;;;0.30;0.20;;;;;;;11.88;100.00;101254.13;5037630;28;20475;-51
2022/01/01 05:19:41;;;;;;;1.13;0.70;;;;;;;11.81;100.00;101247.16;5047077;28;20425;-51
2022/01/01 05:22:07;;;;;;;0.80;0.80;;;;;;;11.79;100.00;101252.53;5041884;28;20513;-51
2022/01/01 05:24:34;;;;;;;0.30;0.20;;;;;;;11.61;100.00;101243.94;5044992;28;20479;-51
2022/01/01 05:27:01;;;;;;;0.30;0.20;;;;;;;11.56;100.00;101250.22;5047094;23;20491;-76
2022/01/01 05:29:28;;;;;;;0.40;0.30;;;;;;;11.48;100.00;101251.25;5018039;28;20451;-76
2022/01/01 05:31:55;;;;;;;0.30;0.20;;;;;;;11.54;100.00;101244.03;5004705;28;20493;-76
2022/01/01 05:34:21;;;;;;;0.30;0.20;;;;;;;11.37;100.00;101235.44;5041153;28;20508;-76
2022/01/01 05:36:48;;;;;;;0.30;0.20;;;;;;;11.41;100.00;101237.16;5003906;28;20479;-76
2022/01/01 05:39:15;;;;;;;0.30;0.20;;;;;;;11.60;100.00;101248.38;5017588;28;20467;-76
2022/01/01 05:41:41;;;;;;;0.30;0.20;;;;;;;11.51;100.00;101244.09;5030321;28;20564;-76
2022/01/01 05:44:08;;;;;;;0.30;0.20;;;;;;;11.36;100.00;101232.81;5027642;28;20525;-76
2022/01/01 05:46:35;;;;;;;0.30;0.20;;;;;;;11.37;100.00;101234.56;5021414;28;20557;-76
2022/01/01 05:49:02;;;;;;;0.50;0.50;;;;;;;11.48;100.00;101229.94;5005292;28;20484;-76
2022/01/01 05:51:29;;;;;;;0.30;0.20;;;;;;;11.47;100.00;101221.06;5028619;28;20431;-76
2022/01/01 05:53:55;;;;;;;0.30;0.20;;;;;;;11.68;100.00;101224.28;5027857;28;20503;-76
2022/01/01 05:56:22;;;;;;;0.40;0.40;;;;;;;11.80;100.00;101210.78;5024779;28;20805;-76
2022/01/01 05:58:48;;;;;;;0.30;0.20;;;;;;;11.48;100.00;101203.31;5027620;28;20430;-76
2022/01/01 06:01:15;;;;;;;0.30;0.20;;;;;;;11.49;100.00;101213.06;5004301;28;20450;-76
2022/01/01 06:03:42;;;;;;;0.30;0.20;;;;;;;11.28;100.00;101207.22;5016326;28;20506;-76
2022/01/01 06:06:09;;;;;;;0.30;0.20;;;;;;;11.23;100.00;101205.50;4997991;28;20518;-77
2022/01/01 06:08:55;;;;;;;0.30;0.20;;;;;;;11.40;100.00;101206.13;5032090;28;20488;-76
2022/01/01 06:11:22;;;;;;;0.87;0.57;;;;;;;11.45;100.00;101216.69;5024682;28;20510;-76
2022/01/01 06:13:49;;;;;;;0.30;0.20;;;;;;;11.29;100.00;101208.09;5023665;28;20457;-77
2022/01/01 06:16:15;;;;;;;0.30;0.30;;;;;;;11.10;100.00;101207.53;5024931;28;20922;-76
2022/01/01 06:18:42;;;;;;;0.30;0.20;;;;;;;11.08;100.00;101209.31;5029009;28;20439;-76
2022/01/01 06:21:09;;;;;;;0.30;0.23;;;;;;;11.00;100.00;101226.31;5025048;28;20998;-76
2022/01/01 06:23:37;;;;;;;0.30;0.20;;;;;;;10.94;100.00;101219.28;5048404;28;20455;-76
2022/01/01 06:26:04;;;;;;;0.30;0.20;;;;;;;10.80;100.00;101222.16;5033660;28;20513;-76
2022/01/01 06:28:31;;;;;;;0.30;0.20;;;;;;;10.87;100.00;101218.50;5008123;28;20488;-76
2022/01/01 06:30:58;;;;;;;0.30;0.20;;;;;;;10.75;100.00;101202.72;5023983;28;20794;-76
2022/01/01 06:33:25;;;;;;;1.60;1.60;;;;;;;10.62;100.00;101209.13;5027785;28;20483;-76
2022/01/01 06:35:54;;;;;;;0.30;0.20;;;;;;;10.54;100.00;101213.66;5004922;28;20464;-76
2022/01/01 06:38:20;;;;;;;0.30;0.20;;;;;;;10.49;100.00;101226.13;5027105;28;20473;-76
2022/01/01 06:40:47;;;;;;;0.30;0.20;;;;;;;10.35;100.00;101227.19;5025621;28;20459;-76
2022/01/01 06:43:16;;;;;;;0.30;0.30;;;;;;;10.38;100.00;101243.09;5022077;28;20573;-77
2022/01/01 06:45:43;;;;;;;0.50;0.50;;;;;;;10.34;100.00;101257.31;5021836;28;20461;-77
2022/01/01 06:48:09;;;;;;;3.60;0.93;;;;;;;10.28;100.00;101259.16;5027444;28;20496;-76
2022/01/01 06:50:39;;;;;;;0.30;0.30;;;;;;;10.20;100.00;101267.22;5027025;28;20451;-77
2022/01/01 06:53:12;;;;;;;0.30;0.20;;;;;;;10.19;100.00;101259.25;5027327;28;20453;-77
2022/01/01 06:55:39;;;;;;;0.83;0.83;;;;;;;10.11;100.00;101269.94;5034732;28;20459;-76
2022/01/01 06:58:06;;;;;;;0.30;0.20;;;;;;;10.11;100.00;101269.94;5008703;28;20518;-76
2022/01/01 07:00:32;;;;;;;0.40;0.33;;;;;;;10.04;100.00;101266.50;5027515;28;20452;-76
2022/01/01 07:02:59;;;;;;;0.30;0.20;;;;;;;9.96;100.00;101267.47;5032262;28;20461;-77
2022/01/01 07:05:27;;;;;;;0.30;0.20;;;;;;;9.73;100.00;101280.94;5002913;28;20457;-76
2022/01/01 07:07:54;;;;;;;0.30;0.20;;;;;;;9.82;100.00;101277.34;5033454;28;20473;-76
2022/01/01 07:10:21;;;;;;;4.93;2.47;;;;;;;9.74;100.00;101290.72;5036484;28;20452;-76
2022/01/01 07:12:47;;;;;;;2.73;2.37;;;;;;;9.83;100.00;101301.22;5006773;28;20449;-76
2022/01/01 07:15:15;;;;;;;1.33;1.17;;;;;;;9.79;100.00;101303.03;5026790;28;20456;-76
2022/01/01 07:17:43;;;;;;;0.30;0.20;;;;;;;9.93;100.00;101313.53;5022100;28;20475;-77
2022/01/01 07:20:11;;;;;;;1.60;1.50;;;;;;;10.02;100.00;101316.09;5002838;28;20530;-77
2022/01/01 07:22:45;;;;;;;1.80;1.33;;;;;;;10.30;100.00;101318.50;5025124;28;21018;-77
2022/01/01 07:25:12;;;;;;;1.53;1.43;;;;;;;10.28;100.00;101325.59;5001299;28;20463;-77
2022/01/01 07:27:39;;;;;;;0.30;0.20;;;;;;;10.30;100.00;101324.72;5004799;28;20570;-76
2022/01/01 07:30:07;;;;;;;0.30;0.20;;;;;;;10.35;100.00;101322.00;5027011;28;21003;-76
2022/01/01 07:32:44;;;;;;;0.30;0.20;;;;;;;10.43;100.00;101329.91;5024571;28;20459;-76
2022/01/01 07:35:12;;;;;;;0.30;0.20;;;;;;;10.32;100.00;101332.66;5019807;28;20456;-76
2022/01/01 07:37:40;;;;;;;0.30;0.30;;;;;;;10.38;100.00;101325.47;5003481;28;20472;-76
2022/01/01 07:40:09;;;;;;;0.40;0.30;;;;;;;10.26;100.00;101320.28;5024595;28;20511;-76
2022/01/01 07:42:36;;;;;;;0.30;0.20;;;;;;;10.33;100.00;101324.66;5025849;28;20889;-76
2022/01/01 07:45:04;;;;;;;0.30;0.20;;;;;;;10.41;100.00;101329.00;5019095;28;20459;-76
2022/01/01 07:47:31;;;;;;;0.40;0.40;;;;;;;10.58;100.00;101333.25;5032406;28;20917;-76
2022/01/01 07:49:57;;;;;;;0.30;0.20;;;;;;;10.67;100.00;101338.44;5019320;28;20476;-77
2022/01/01 07:52:24;;;;;;;0.30;0.20;;;;;;;10.83;100.00;101339.16;5002555;28;20522;-77
2022/01/01 07:54:51;;;;;;;0.30;0.20;;;;;;;10.78;100.00;101338.31;5014361;28;20463;-76
2022/01/01 07:57:17;;;;;;;1.30;1.20;;;;;;;10.83;100.00;101351.56;5031442;28;20467;-76
2022/01/01 07:59:44;;;;;;;2.43;2.23;;;;;;;11.09;100.00;101352.09;5020556;28;20517;-77
2022/01/01 08:02:11;;;;;;;0.30;0.20;;;;;;;10.93;100.00;101340.78;5029911;28;20483;-76
2022/01/01 08:04:38;;;;;;;0.30;0.20;;;;;;;11.04;100.00;101337.09;5007470;28;20507;-76
2022/01/01 08:07:04;;;;;;;0.30;0.20;;;;;;;11.03;100.00;101330.91;5025804;28;20516;-77
2022/01/01 08:09:51;;;;;;;0.30;0.30;;;;;;;11.05;100.00;101330.88;5022035;28;20932;-76
2022/01/01 08:12:17;;;;;;;0.30;0.20;;;;;;;11.02;100.00;101328.25;5008753;28;20453;-77
2022/01/01 08:14:44;;;;;;;0.60;0.20;;;;;;;11.05;100.00;101338.84;5023534;28;20865;-76
2022/01/01 08:17:11;;;;;;;0.80;0.77;;;;;;;11.07;100.00;101337.03;5019431;28;20464;-76
2022/01/01 08:19:38;;;;;;;0.30;0.20;;;;;;;11.10;100.00;101337.00;5021618;28;21069;-77
2022/01/01 08:22:05;;;;;;;0.30;0.20;;;;;;;11.27;100.00;101341.19;5013364;28;20443;-77
2022/01/01 08:24:31;;;;;;;0.30;0.20;;;;;;;11.39;100.00;101336.59;5012643;28;20511;-76
2022/01/01 08:26:58;;;;;;;0.30;0.20;;;;;;;11.38;100.00;101338.38;5031454;28;21057;-76
2022/01/01 08:29:26;;;;;;;0.30;0.20;;;;;;;11.46;100.00;101339.13;5032260;28;20866;-76
2022/01/01 08:31:54;;;;;;;0.30;0.20;;;;;;;11.51;100.00;101333.72;5018987;28;20447;-77
2022/01/01 08:34:21;;;;;;;0.30;0.20;;;;;;;11.58;100.00;101341.59;5014964;28;20451;-76
2022/01/01 08:36:48;;;;;;;0.30;0.20;;;;;;;11.70;100.00;101329.88;5031667;28;20491;-77
2022/01/01 08:39:16;;;;;;;0.30;0.20;;;;;;;11.68;100.00;101325.50;5024468;28;20456;-77
2022/01/01 08:41:44;;;;;;;0.30;0.20;;;;;;;11.74;100.00;101325.38;5018674;28;20889;-77
2022/01/01 08:44:12;;;;;;;0.30;0.20;;;;;;;11.81;100.00;101321.75;5007614;28;20951;-77
2022/01/01 08:46:39;;;;;;;0.30;0.20;;;;;;;11.84;100.00;101321.69;5013283;28;20475;-77
2022/01/01 08:49:06;;;;;;;0.40;0.20;;;;;;;11.91;100.00;101326.00;5007994;28;20886;-76
2022/01/01 08:51:36;;;;;;;0.30;0.30;;;;;;;11.95;100.00;101327.72;5002619;28;20820;-75
2022/01/01 08:54:03;;;;;;;0.30;0.30;;;;;;;11.98;100.00;101326.78;5032584;28;20421;-75
2022/01/01 08:56:30;;;;;;;0.30;0.20;;;;;;;12.11;100.00;101334.53;5032581;28;20439;-75
2022/01/01 08:58:57;;;;;;;0.30;0.20;;;;;;;12.05;100.00;101321.28;5017800;28;20852;-75
2022/01/01 09:01:24;;;;;;;0.40;0.40;;;;;;;11.99;100.00;101318.75;5025427;28;20452;-75
2022/01/01 09:03:51;;;;;;;0.30;0.20;;;;;;;12.26;100.00;101321.81;5030800;28;20448;-75
2022/01/01 09:06:17;;;;;;;0.70;0.70;;;;;;;12.24;100.00;101307.66;5003348;28;20933;-75
2022/01/01 09:08:44;;;;;;;5.70;3.60;;;;;;;12.11;100.00;101299.88;5018864;28;20488;-75
2022/01/01 09:11:12;;;;;;;0.40;0.40;;;;;;;12.12;100.00;101290.97;5023850;28;20811;-75
2022/01/01 09:13:43;;;;;;;0.30;0.20;;;;;;;12.08;100.00;101299.94;5025529;28;20462;-75
2022/01/01 09:16:12;;;;;;;0.87;0.87;;;;;;;12.21;100.00;101305.94;5019000;28;20444;-75
2022/01/01 09:18:40;;;;;;;0.53;0.53;;;;;;;12.26;100.00;101309.38;5025859;28;20500;-75
2022/01/01 09:21:06;;;;;;;0.30;0.30;;;;;;;12.28;100.00;101320.00;5004351;28;20459;-75
2022/01/01 09:23:33;;;;;;;0.30;0.20;;;;;;;12.26;100.00;101309.38;5030637;28;20510;-75
2022/01/01 09:26:03;;;;;;;0.30;0.20;;;;;;;12.38;100.00;101316.25;5008218;28;20459;-75
2022/01/01 09:28:30;;;;;;;0.30;0.20;;;;;;;12.39;100.00;101318.00;5018578;28;20495;-75
2022/01/01 09:30:58;;;;;;;0.50;0.47;;;;;;;12.47;100.00;101324.06;5004898;28;20495;-75
2022/01/01 09:33:29;;;;;;;0.67;0.67;;;;;;;12.48;100.00;101335.63;5014477;28;20445;-76
2022/01/01 09:36:02;;;;;;;0.33;0.20;;;;;;;12.49;100.00;101340.06;5015090;28;20486;-75
2022/01/01 09:38:30;;;;;;;1.23;1.23;;;;;;;12.53;100.00;101336.41;5023371;28;20455;-75
2022/01/01 09:40:57;;;;;;;0.40;0.40;;;;;;;12.51;100.00;101336.44;5028946;28;20500;-76
2022/01/01 09:43:26;;;;;;;5.43;1.03;;;;;;;12.42;100.00;101331.28;5025284;28;20917;-75
2022/01/01 09:45:54;;;;;;;1.63;1.53;;;;;;;12.65;100.00;101329.03;5022972;28;20475;-75
2022/01/01 09:48:22;;;;;;;1.40;1.33;;;;;;;12.61;100.00;101327.34;4997677;28;20497;-76
2022/01/01 09:50:53;;;;;;;0.30;0.20;;;;;;;12.66;100.00;101336.13;5019276;28;20511;-76
2022/01/01 09:53:25;;;;;;;0.30;0.20;;;;;;;12.77;100.00;101324.38;5020337;28;20884;-76
2022/01/01 09:55:56;;;;;;;0.30;0.20;;;;;;;12.78;100.00;101321.66;5027000;28;20452;-76
2022/01/01 09:58:25;;;;;;;0.30;0.20;;;;;;;12.73;100.00;101324.41;5025270;28;20518;-76
2022/01/01 10:00:52;;;;;;;0.30;0.20;;;;;;;12.80;100.00;101321.63;5025949;28;20434;-76
2022/01/01 10:03:36;;;;;;;0.30;0.20;;;;;;;12.78;100.00;101315.47;5034560;28;20971;-76
2022/01/01 10:06:08;;;;;;;0.30;0.20;;;;;;;12.80;100.00;101325.19;5029113;28;20499;-76
2022/01/01 10:08:44;;;;;;;0.30;0.20;;;;;;;12.83;100.00;101321.56;5010946;28;20491;-76
2022/01/01 10:11:15;;;;;;;0.40;0.40;;;;;;;12.89;100.00;101335.66;5015055;28;20444;-76
2022/01/01 10:13:43;;;;;;;0.30;0.20;;;;;;;12.94;100.00;101332.88;5028386;28;20501;-76
2022/01/01 10:16:12;;;;;;;0.30;0.30;;;;;;;12.84;100.00;101334.00;5007291;28;20448;-77
2022/01/01 10:18:43;;;;;;;0.30;0.20;;;;;;;12.93;100.00;101328.47;5021808;28;20479;-76
2022/01/01 10:21:12;;;;;;;0.30;0.20;;;;;;;12.93;100.00;101317.78;5024852;28;20456;-76
2022/01/01 10:23:41;;;;;;;0.40;0.37;;;;;;;12.99;100.00;101323.88;5023754;28;20428;-76
2022/01/01 10:29:26;;;;;;;0.30;0.20;;;;;;;13.03;100.00;101311.34;5017309;28;21334;-77
2022/01/01 10:31:58;;;;;;;0.30;0.20;;;;;;;13.07;100.00;101297.00;5022455;28;21031;-76
2022/01/01 10:34:28;;;;;;;0.30;0.20;;;;;;;13.04;100.00;101308.66;5029066;28;20450;-76
2022/01/01 10:36:56;;;;;;;0.30;0.30;;;;;;;13.13;100.00;101307.53;5009484;28;20486;-76
2022/01/01 10:39:24;;;;;;;0.30;0.20;;;;;;;13.12;100.00;101307.56;5019554;28;20444;-76
2022/01/01 10:42:00;;;;;;;0.30;0.30;;;;;;;13.09;100.00;101303.19;5007658;28;20452;-76
2022/01/01 10:44:33;;;;;;;0.30;0.20;;;;;;;13.05;100.00;101298.84;5026513;28;20498;-76
2022/01/01 10:47:06;;;;;;;0.30;0.20;;;;;;;13.12;100.00;101296.91;5024355;28;20468;-76
2022/01/01 10:52:23;;;;;;;0.30;0.20;;;;;;;13.24;100.00;101288.63;5019533;28;20460;-76
2022/01/01 10:54:51;;;;;;;1.17;1.17;;;;;;;13.16;100.00;101304.81;5024842;28;20440;-76
2022/01/01 10:57:34;;;;;;;0.30;0.20;;;;;;;13.15;100.00;101291.47;5020946;28;20472;-76
2022/01/01 11:00:22;;;;;;;0.30;0.20;;;;;;;13.30;100.00;101300.06;5024134;28;20439;-76
2022/01/01 11:02:50;;;;;;;0.77;0.77;;;;;;;13.28;100.00;101296.53;5010194;28;20479;-76
2022/01/01 11:05:27;;;;;;;0.30;0.20;;;;;;;13.31;100.00;101304.50;5013795;28;20480;-76
2022/01/01 11:07:53;;;;;;;0.30;0.30;;;;;;;13.34;100.00;101300.88;5022879;28;20544;-76
2022/01/01 11:10:22;;;;;;;0.30;0.20;;;;;;;13.56;100.00;101295.88;5020625;28;20534;-76
2022/01/01 11:12:50;;;;;;;0.30;0.20;;;;;;;13.50;100.00;101296.91;5022370;28;20491;-76
2022/01/01 11:15:16;;;;;;;0.40;0.30;;;;;;;13.53;100.00;101286.16;5003308;28;20448;-76
2022/01/01 11:17:44;;;;;;;0.30;0.20;;;;;;;13.50;100.00;101286.22;5030555;28;21015;-76
2022/01/01 11:20:11;;;;;;;0.30;0.20;;;;;;;13.71;100.00;101282.16;5023220;28;20871;-76
2022/01/01 11:22:45;;;;;;;0.30;0.20;;;;;;;13.67;100.00;101285.81;5026586;28;20448;-76
2022/01/01 11:25:12;;;;;;;0.30;0.20;;;;;;;13.72;100.00;101283.91;5003005;28;20464;-76
2022/01/01 11:27:38;;;;;;;0.30;0.23;;;;;;;13.59;100.00;101269.09;5023633;28;20968;-76
2022/01/01 11:30:08;;;;;;;0.30;0.20;;;;;;;13.66;100.00;101278.69;5030336;28;20452;-76